sensor_id;sensor_type;location;lat;lon;timestamp;P1;durP1;ratioP1;P2;durP2;ratioP2
17631;SDS011;8934;51.194;17.150;2023-09-12T00:02:24;16.70;;;14.88;;
17631;SDS011;8934;51.194;17.150;2023-09-12T00:05:11;17.10;;;15.10;;
17631;SDS011;8934;51.194;17.150;2023-09-12T00:07:59;17.73;;;14.65;;
17631;SDS011;8934;51.194;17.150;2023-09-12T00:10:57;17.80;;;14.13;;
17631;SDS011;8934;51.194;17.150;2023-09-12T00:13:45;19.20;;;15.90;;
17631;SDS011;8934;51.194;17.150;2023-09-12T00:16:34;18.17;;;15.02;;
17631;SDS011;8934;51.194;17.150;2023-09-12T00:19:22;16.25;;;14.55;;
17631;SDS011;8934;51.194;17.150;2023-09-12T00:22:09;18.65;;;15.18;;
17631;SDS011;8934;51.194;17.150;2023-09-12T00:24:57;16.98;;;14.25;;
17631;SDS011;8934;51.194;17.150;2023-09-12T00:27:45;17.95;;;14.75;;
17631;SDS011;8934;51.194;17.150;2023-09-12T00:30:32;16.85;;;14.25;;
17631;SDS011;8934;51.194;17.150;2023-09-12T00:33:22;17.15;;;14.88;;
17631;SDS011;8934;51.194;17.150;2023-09-12T00:36:10;17.25;;;14.80;;
17631;SDS011;8934;51.194;17.150;2023-09-12T00:38:58;18.95;;;14.90;;
17631;SDS011;8934;51.194;17.150;2023-09-12T00:41:46;16.15;;;13.85;;
17631;SDS011;8934;51.194;17.150;2023-09-12T00:44:33;17.02;;;14.77;;
17631;SDS011;8934;51.194;17.150;2023-09-12T00:47:21;17.52;;;14.65;;
17631;SDS011;8934;51.194;17.150;2023-09-12T00:50:11;19.50;;;15.18;;
17631;SDS011;8934;51.194;17.150;2023-09-12T00:53:00;20.15;;;15.63;;
17631;SDS011;8934;51.194;17.150;2023-09-12T00:55:50;17.23;;;14.80;;
17631;SDS011;8934;51.194;17.150;2023-09-12T00:58:40;18.02;;;15.25;;
17631;SDS011;8934;51.194;17.150;2023-09-12T01:01:28;19.05;;;16.17;;
17631;SDS011;8934;51.194;17.150;2023-09-12T01:04:16;19.48;;;16.63;;
17631;SDS011;8934;51.194;17.150;2023-09-12T01:07:20;17.63;;;15.77;;
17631;SDS011;8934;51.194;17.150;2023-09-12T01:10:08;20.52;;;15.32;;
17631;SDS011;8934;51.194;17.150;2023-09-12T01:12:56;20.15;;;16.42;;
17631;SDS011;8934;51.194;17.150;2023-09-12T01:15:44;18.23;;;16.25;;
17631;SDS011;8934;51.194;17.150;2023-09-12T01:18:32;17.60;;;15.73;;
17631;SDS011;8934;51.194;17.150;2023-09-12T01:21:34;18.27;;;16.00;;
17631;SDS011;8934;51.194;17.150;2023-09-12T01:24:43;21.92;;;18.50;;
17631;SDS011;8934;51.194;17.150;2023-09-12T01:27:38;21.02;;;16.67;;
17631;SDS011;8934;51.194;17.150;2023-09-12T01:30:29;20.25;;;16.35;;
17631;SDS011;8934;51.194;17.150;2023-09-12T01:33:19;18.45;;;15.48;;
17631;SDS011;8934;51.194;17.150;2023-09-12T01:36:08;19.83;;;16.35;;
17631;SDS011;8934;51.194;17.150;2023-09-12T01:38:56;18.45;;;16.08;;
17631;SDS011;8934;51.194;17.150;2023-09-12T01:41:44;19.98;;;15.98;;
17631;SDS011;8934;51.194;17.150;2023-09-12T01:44:34;19.33;;;15.23;;
17631;SDS011;8934;51.194;17.150;2023-09-12T01:47:22;18.13;;;15.55;;
17631;SDS011;8934;51.194;17.150;2023-09-12T01:50:11;20.95;;;16.55;;
17631;SDS011;8934;51.194;17.150;2023-09-12T01:52:59;20.83;;;16.95;;
17631;SDS011;8934;51.194;17.150;2023-09-12T01:55:48;19.67;;;16.60;;
17631;SDS011;8934;51.194;17.150;2023-09-12T01:58:36;20.80;;;16.92;;
17631;SDS011;8934;51.194;17.150;2023-09-12T02:01:26;21.90;;;16.50;;
17631;SDS011;8934;51.194;17.150;2023-09-12T02:04:14;19.75;;;16.77;;
17631;SDS011;8934;51.194;17.150;2023-09-12T02:07:02;18.30;;;16.40;;
17631;SDS011;8934;51.194;17.150;2023-09-12T02:09:50;20.33;;;17.52;;
17631;SDS011;8934;51.194;17.150;2023-09-12T02:12:38;20.58;;;17.75;;
17631;SDS011;8934;51.194;17.150;2023-09-12T02:15:26;19.70;;;16.38;;
17631;SDS011;8934;51.194;17.150;2023-09-12T02:18:15;22.08;;;17.27;;
17631;SDS011;8934;51.194;17.150;2023-09-12T02:21:03;19.83;;;16.92;;
17631;SDS011;8934;51.194;17.150;2023-09-12T02:23:51;19.92;;;16.27;;
17631;SDS011;8934;51.194;17.150;2023-09-12T02:26:38;19.48;;;16.90;;
17631;SDS011;8934;51.194;17.150;2023-09-12T02:29:26;20.63;;;17.13;;
17631;SDS011;8934;51.194;17.150;2023-09-12T02:32:14;19.08;;;17.05;;
17631;SDS011;8934;51.194;17.150;2023-09-12T02:35:03;19.67;;;16.08;;
17631;SDS011;8934;51.194;17.150;2023-09-12T02:37:51;18.92;;;16.00;;
17631;SDS011;8934;51.194;17.150;2023-09-12T02:40:39;23.52;;;19.10;;
17631;SDS011;8934;51.194;17.150;2023-09-12T02:43:27;19.60;;;17.38;;
17631;SDS011;8934;51.194;17.150;2023-09-12T02:46:16;20.38;;;16.80;;
17631;SDS011;8934;51.194;17.150;2023-09-12T02:49:03;21.52;;;17.20;;
17631;SDS011;8934;51.194;17.150;2023-09-12T02:51:52;19.52;;;16.45;;
17631;SDS011;8934;51.194;17.150;2023-09-12T02:54:40;18.95;;;16.60;;
17631;SDS011;8934;51.194;17.150;2023-09-12T02:57:28;22.25;;;17.75;;
17631;SDS011;8934;51.194;17.150;2023-09-12T03:00:17;19.60;;;16.77;;
17631;SDS011;8934;51.194;17.150;2023-09-12T03:03:05;18.88;;;15.98;;
17631;SDS011;8934;51.194;17.150;2023-09-12T03:05:58;18.25;;;15.85;;
17631;SDS011;8934;51.194;17.150;2023-09-12T03:08:47;19.38;;;16.08;;
17631;SDS011;8934;51.194;17.150;2023-09-12T03:11:35;21.23;;;15.88;;
17631;SDS011;8934;51.194;17.150;2023-09-12T03:14:23;18.30;;;15.95;;
17631;SDS011;8934;51.194;17.150;2023-09-12T03:17:11;19.48;;;15.38;;
17631;SDS011;8934;51.194;17.150;2023-09-12T03:19:58;20.80;;;15.70;;
17631;SDS011;8934;51.194;17.150;2023-09-12T03:22:47;17.13;;;15.32;;
17631;SDS011;8934;51.194;17.150;2023-09-12T03:25:36;19.17;;;15.63;;
17631;SDS011;8934;51.194;17.150;2023-09-12T03:28:24;17.65;;;15.07;;
17631;SDS011;8934;51.194;17.150;2023-09-12T03:31:13;19.25;;;16.27;;
17631;SDS011;8934;51.194;17.150;2023-09-12T03:34:01;21.13;;;17.10;;
17631;SDS011;8934;51.194;17.150;2023-09-12T03:36:49;18.33;;;15.43;;
17631;SDS011;8934;51.194;17.150;2023-09-12T03:39:37;20.40;;;17.27;;
17631;SDS011;8934;51.194;17.150;2023-09-12T03:42:27;18.98;;;16.48;;
17631;SDS011;8934;51.194;17.150;2023-09-12T03:45:27;18.13;;;16.23;;
17631;SDS011;8934;51.194;17.150;2023-09-12T03:48:14;20.48;;;16.35;;
17631;SDS011;8934;51.194;17.150;2023-09-12T03:51:03;21.73;;;16.27;;
17631;SDS011;8934;51.194;17.150;2023-09-12T03:53:51;21.23;;;16.85;;
17631;SDS011;8934;51.194;17.150;2023-09-12T03:56:39;18.25;;;16.08;;
17631;SDS011;8934;51.194;17.150;2023-09-12T03:59:32;20.27;;;16.20;;
17631;SDS011;8934;51.194;17.150;2023-09-12T04:02:19;19.02;;;16.55;;
17631;SDS011;8934;51.194;17.150;2023-09-12T04:05:07;17.95;;;15.07;;
17631;SDS011;8934;51.194;17.150;2023-09-12T04:07:56;18.70;;;16.60;;
17631;SDS011;8934;51.194;17.150;2023-09-12T04:10:43;18.95;;;16.23;;
17631;SDS011;8934;51.194;17.150;2023-09-12T04:13:31;19.60;;;16.27;;
17631;SDS011;8934;51.194;17.150;2023-09-12T04:16:20;18.92;;;16.90;;
17631;SDS011;8934;51.194;17.150;2023-09-12T04:19:09;21.65;;;17.17;;
17631;SDS011;8934;51.194;17.150;2023-09-12T04:21:56;21.23;;;17.05;;
17631;SDS011;8934;51.194;17.150;2023-09-12T04:24:45;18.77;;;16.25;;
17631;SDS011;8934;51.194;17.150;2023-09-12T04:27:33;20.17;;;16.52;;
17631;SDS011;8934;51.194;17.150;2023-09-12T04:30:21;20.42;;;17.17;;
17631;SDS011;8934;51.194;17.150;2023-09-12T04:33:11;22.73;;;18.55;;
17631;SDS011;8934;51.194;17.150;2023-09-12T04:36:00;22.92;;;17.88;;
17631;SDS011;8934;51.194;17.150;2023-09-12T04:38:48;19.48;;;17.42;;
17631;SDS011;8934;51.194;17.150;2023-09-12T04:41:36;18.30;;;16.40;;
17631;SDS011;8934;51.194;17.150;2023-09-12T04:44:24;19.90;;;16.58;;
17631;SDS011;8934;51.194;17.150;2023-09-12T04:47:12;19.10;;;16.20;;
17631;SDS011;8934;51.194;17.150;2023-09-12T04:50:01;20.50;;;17.40;;
17631;SDS011;8934;51.194;17.150;2023-09-12T04:52:49;19.23;;;16.15;;
17631;SDS011;8934;51.194;17.150;2023-09-12T04:55:37;19.35;;;16.40;;
17631;SDS011;8934;51.194;17.150;2023-09-12T04:58:26;18.55;;;15.93;;
17631;SDS011;8934;51.194;17.150;2023-09-12T05:01:14;19.02;;;15.88;;
17631;SDS011;8934;51.194;17.150;2023-09-12T05:04:02;19.85;;;17.70;;
17631;SDS011;8934;51.194;17.150;2023-09-12T05:06:51;21.45;;;17.45;;
17631;SDS011;8934;51.194;17.150;2023-09-12T05:09:40;22.35;;;18.13;;
17631;SDS011;8934;51.194;17.150;2023-09-12T05:12:29;24.58;;;19.83;;
17631;SDS011;8934;51.194;17.150;2023-09-12T05:15:17;25.33;;;20.83;;
17631;SDS011;8934;51.194;17.150;2023-09-12T05:18:05;22.17;;;19.70;;
17631;SDS011;8934;51.194;17.150;2023-09-12T05:20:53;24.25;;;20.00;;
17631;SDS011;8934;51.194;17.150;2023-09-12T05:23:43;24.20;;;20.15;;
17631;SDS011;8934;51.194;17.150;2023-09-12T05:26:31;25.45;;;21.60;;
17631;SDS011;8934;51.194;17.150;2023-09-12T05:29:19;27.13;;;22.30;;
17631;SDS011;8934;51.194;17.150;2023-09-12T05:32:07;28.90;;;23.48;;
17631;SDS011;8934;51.194;17.150;2023-09-12T05:34:55;29.77;;;23.02;;
17631;SDS011;8934;51.194;17.150;2023-09-12T05:38:03;30.10;;;24.25;;
17631;SDS011;8934;51.194;17.150;2023-09-12T05:40:53;30.67;;;25.77;;
17631;SDS011;8934;51.194;17.150;2023-09-12T05:43:41;30.23;;;25.27;;
17631;SDS011;8934;51.194;17.150;2023-09-12T05:46:29;36.25;;;29.05;;
17631;SDS011;8934;51.194;17.150;2023-09-12T05:49:17;37.95;;;28.20;;
17631;SDS011;8934;51.194;17.150;2023-09-12T05:52:05;41.25;;;32.55;;
17631;SDS011;8934;51.194;17.150;2023-09-12T05:54:53;41.95;;;33.97;;
17631;SDS011;8934;51.194;17.150;2023-09-12T05:57:43;41.67;;;34.83;;
17631;SDS011;8934;51.194;17.150;2023-09-12T06:00:31;46.65;;;34.85;;
17631;SDS011;8934;51.194;17.150;2023-09-12T06:03:19;48.92;;;35.47;;
17631;SDS011;8934;51.194;17.150;2023-09-12T06:06:07;41.60;;;34.17;;
17631;SDS011;8934;51.194;17.150;2023-09-12T06:08:55;44.40;;;33.30;;
17631;SDS011;8934;51.194;17.150;2023-09-12T06:11:44;49.85;;;36.38;;
17631;SDS011;8934;51.194;17.150;2023-09-12T06:14:33;43.22;;;34.88;;
17631;SDS011;8934;51.194;17.150;2023-09-12T06:17:21;41.45;;;33.83;;
17631;SDS011;8934;51.194;17.150;2023-09-12T06:20:09;42.63;;;34.25;;
17631;SDS011;8934;51.194;17.150;2023-09-12T06:22:58;41.40;;;33.15;;
17631;SDS011;8934;51.194;17.150;2023-09-12T06:25:46;44.83;;;35.95;;
17631;SDS011;8934;51.194;17.150;2023-09-12T06:28:34;50.88;;;37.72;;
17631;SDS011;8934;51.194;17.150;2023-09-12T06:31:23;54.45;;;36.75;;
17631;SDS011;8934;51.194;17.150;2023-09-12T06:34:11;52.65;;;36.97;;
17631;SDS011;8934;51.194;17.150;2023-09-12T06:36:59;40.97;;;32.58;;
17631;SDS011;8934;51.194;17.150;2023-09-12T06:39:49;41.17;;;32.63;;
17631;SDS011;8934;51.194;17.150;2023-09-12T06:42:37;38.75;;;30.52;;
17631;SDS011;8934;51.194;17.150;2023-09-12T06:45:26;43.83;;;32.42;;
17631;SDS011;8934;51.194;17.150;2023-09-12T06:48:15;40.50;;;31.35;;
17631;SDS011;8934;51.194;17.150;2023-09-12T06:51:04;38.78;;;30.33;;
17631;SDS011;8934;51.194;17.150;2023-09-12T06:54:00;41.67;;;30.20;;
17631;SDS011;8934;51.194;17.150;2023-09-12T06:56:48;39.53;;;29.77;;
17631;SDS011;8934;51.194;17.150;2023-09-12T06:59:36;36.92;;;28.30;;
17631;SDS011;8934;51.194;17.150;2023-09-12T07:02:26;42.88;;;29.08;;
17631;SDS011;8934;51.194;17.150;2023-09-12T07:05:15;32.10;;;26.70;;
17631;SDS011;8934;51.194;17.150;2023-09-12T07:08:03;30.02;;;24.67;;
17631;SDS011;8934;51.194;17.150;2023-09-12T07:10:52;31.95;;;25.23;;
17631;SDS011;8934;51.194;17.150;2023-09-12T07:13:40;30.60;;;22.58;;
17631;SDS011;8934;51.194;17.150;2023-09-12T07:16:30;26.98;;;22.83;;
17631;SDS011;8934;51.194;17.150;2023-09-12T07:19:18;28.88;;;21.95;;
17631;SDS011;8934;51.194;17.150;2023-09-12T07:22:08;26.40;;;22.42;;
17631;SDS011;8934;51.194;17.150;2023-09-12T07:24:59;31.02;;;23.55;;
17631;SDS011;8934;51.194;17.150;2023-09-12T07:27:47;25.35;;;20.98;;
17631;SDS011;8934;51.194;17.150;2023-09-12T07:30:35;29.75;;;20.50;;
17631;SDS011;8934;51.194;17.150;2023-09-12T07:33:24;21.60;;;18.90;;
17631;SDS011;8934;51.194;17.150;2023-09-12T07:36:12;21.15;;;18.17;;
17631;SDS011;8934;51.194;17.150;2023-09-12T07:39:01;22.15;;;19.00;;
17631;SDS011;8934;51.194;17.150;2023-09-12T07:41:49;24.25;;;17.92;;
17631;SDS011;8934;51.194;17.150;2023-09-12T07:44:37;23.55;;;17.30;;
17631;SDS011;8934;51.194;17.150;2023-09-12T07:47:25;21.27;;;18.08;;
17631;SDS011;8934;51.194;17.150;2023-09-12T07:50:13;19.05;;;16.55;;
17631;SDS011;8934;51.194;17.150;2023-09-12T07:53:00;18.55;;;16.45;;
17631;SDS011;8934;51.194;17.150;2023-09-12T07:55:50;22.23;;;17.02;;
17631;SDS011;8934;51.194;17.150;2023-09-12T07:58:38;19.23;;;16.10;;
17631;SDS011;8934;51.194;17.150;2023-09-12T08:01:26;20.30;;;15.50;;
17631;SDS011;8934;51.194;17.150;2023-09-12T08:04:14;19.80;;;15.77;;
17631;SDS011;8934;51.194;17.150;2023-09-12T08:07:02;17.55;;;14.88;;
17631;SDS011;8934;51.194;17.150;2023-09-12T08:09:51;19.60;;;15.23;;
17631;SDS011;8934;51.194;17.150;2023-09-12T08:12:40;17.23;;;14.15;;
17631;SDS011;8934;51.194;17.150;2023-09-12T08:15:28;15.85;;;13.38;;
17631;SDS011;8934;51.194;17.150;2023-09-12T08:18:16;16.25;;;13.57;;
17631;SDS011;8934;51.194;17.150;2023-09-12T08:21:04;17.38;;;13.48;;
17631;SDS011;8934;51.194;17.150;2023-09-12T08:23:52;15.07;;;13.57;;
17631;SDS011;8934;51.194;17.150;2023-09-12T08:26:40;16.63;;;13.75;;
17631;SDS011;8934;51.194;17.150;2023-09-12T08:29:29;14.23;;;12.35;;
17631;SDS011;8934;51.194;17.150;2023-09-12T08:32:18;18.27;;;13.52;;
17631;SDS011;8934;51.194;17.150;2023-09-12T08:35:06;18.33;;;12.68;;
17631;SDS011;8934;51.194;17.150;2023-09-12T08:37:54;14.55;;;11.73;;
17631;SDS011;8934;51.194;17.150;2023-09-12T08:40:47;14.30;;;12.60;;
17631;SDS011;8934;51.194;17.150;2023-09-12T08:43:35;19.50;;;13.88;;
17631;SDS011;8934;51.194;17.150;2023-09-12T08:46:24;15.95;;;12.35;;
17631;SDS011;8934;51.194;17.150;2023-09-12T08:49:12;14.85;;;11.80;;
17631;SDS011;8934;51.194;17.150;2023-09-12T08:52:00;16.45;;;12.38;;
17631;SDS011;8934;51.194;17.150;2023-09-12T08:54:49;15.57;;;11.77;;
17631;SDS011;8934;51.194;17.150;2023-09-12T08:57:39;13.65;;;11.27;;
17631;SDS011;8934;51.194;17.150;2023-09-12T09:00:27;13.48;;;11.65;;
17631;SDS011;8934;51.194;17.150;2023-09-12T09:03:17;12.60;;;11.30;;
17631;SDS011;8934;51.194;17.150;2023-09-12T09:06:06;16.77;;;11.90;;
17631;SDS011;8934;51.194;17.150;2023-09-12T09:08:56;13.07;;;11.68;;
17631;SDS011;8934;51.194;17.150;2023-09-12T09:11:43;12.07;;;10.77;;
17631;SDS011;8934;51.194;17.150;2023-09-12T09:14:31;14.15;;;11.45;;
17631;SDS011;8934;51.194;17.150;2023-09-12T09:17:19;12.40;;;10.80;;
17631;SDS011;8934;51.194;17.150;2023-09-12T09:20:27;12.55;;;10.82;;
17631;SDS011;8934;51.194;17.150;2023-09-12T09:23:15;13.60;;;12.10;;
17631;SDS011;8934;51.194;17.150;2023-09-12T09:26:02;13.48;;;10.30;;
17631;SDS011;8934;51.194;17.150;2023-09-12T09:29:02;10.55;;;9.45;;
17631;SDS011;8934;51.194;17.150;2023-09-12T09:31:50;10.95;;;9.60;;
17631;SDS011;8934;51.194;17.150;2023-09-12T09:34:38;15.32;;;10.93;;
17631;SDS011;8934;51.194;17.150;2023-09-12T09:37:29;15.55;;;9.93;;
17631;SDS011;8934;51.194;17.150;2023-09-12T09:40:17;14.30;;;11.20;;
17631;SDS011;8934;51.194;17.150;2023-09-12T09:43:05;11.40;;;10.23;;
17631;SDS011;8934;51.194;17.150;2023-09-12T09:45:53;13.02;;;11.07;;
17631;SDS011;8934;51.194;17.150;2023-09-12T09:48:41;10.30;;;9.20;;
17631;SDS011;8934;51.194;17.150;2023-09-12T09:51:40;12.07;;;9.55;;
17631;SDS011;8934;51.194;17.150;2023-09-12T09:54:30;11.13;;;9.60;;
17631;SDS011;8934;51.194;17.150;2023-09-12T09:57:18;10.45;;;9.40;;
17631;SDS011;8934;51.194;17.150;2023-09-12T10:00:06;15.95;;;10.00;;
17631;SDS011;8934;51.194;17.150;2023-09-12T10:03:01;9.93;;;8.85;;
17631;SDS011;8934;51.194;17.150;2023-09-12T10:05:51;11.15;;;8.68;;
17631;SDS011;8934;51.194;17.150;2023-09-12T10:08:42;10.52;;;9.50;;
17631;SDS011;8934;51.194;17.150;2023-09-12T10:11:31;15.35;;;10.32;;
17631;SDS011;8934;51.194;17.150;2023-09-12T10:14:20;11.45;;;10.18;;
17631;SDS011;8934;51.194;17.150;2023-09-12T10:17:08;15.38;;;10.82;;
17631;SDS011;8934;51.194;17.150;2023-09-12T10:20:02;11.48;;;9.80;;
17631;SDS011;8934;51.194;17.150;2023-09-12T10:22:57;13.02;;;10.35;;
17631;SDS011;8934;51.194;17.150;2023-09-12T10:25:47;14.32;;;9.80;;
17631;SDS011;8934;51.194;17.150;2023-09-12T10:28:36;10.63;;;9.57;;
17631;SDS011;8934;51.194;17.150;2023-09-12T10:31:25;13.35;;;9.70;;
17631;SDS011;8934;51.194;17.150;2023-09-12T10:34:14;13.15;;;9.15;;
17631;SDS011;8934;51.194;17.150;2023-09-12T10:37:04;12.18;;;9.82;;
17631;SDS011;8934;51.194;17.150;2023-09-12T10:39:53;12.02;;;9.57;;
17631;SDS011;8934;51.194;17.150;2023-09-12T10:42:41;11.00;;;9.45;;
17631;SDS011;8934;51.194;17.150;2023-09-12T10:45:32;10.10;;;8.38;;
17631;SDS011;8934;51.194;17.150;2023-09-12T10:48:19;9.02;;;8.10;;
17631;SDS011;8934;51.194;17.150;2023-09-12T10:51:07;8.25;;;7.45;;
17631;SDS011;8934;51.194;17.150;2023-09-12T10:53:56;9.45;;;6.75;;
17631;SDS011;8934;51.194;17.150;2023-09-12T10:56:43;7.97;;;7.00;;
17631;SDS011;8934;51.194;17.150;2023-09-12T10:59:36;8.25;;;6.65;;
17631;SDS011;8934;51.194;17.150;2023-09-12T11:02:28;7.53;;;6.70;;
17631;SDS011;8934;51.194;17.150;2023-09-12T11:05:35;8.63;;;6.38;;
17631;SDS011;8934;51.194;17.150;2023-09-12T11:08:23;9.68;;;7.65;;
17631;SDS011;8934;51.194;17.150;2023-09-12T11:11:17;10.00;;;7.50;;
17631;SDS011;8934;51.194;17.150;2023-09-12T11:14:06;8.90;;;6.97;;
17631;SDS011;8934;51.194;17.150;2023-09-12T11:22:57;7.75;;;7.05;;
17631;SDS011;8934;51.194;17.150;2023-09-12T11:26:03;8.30;;;7.50;;
17631;SDS011;8934;51.194;17.150;2023-09-12T11:28:52;8.77;;;6.93;;
17631;SDS011;8934;51.194;17.150;2023-09-12T11:31:46;10.20;;;6.93;;
17631;SDS011;8934;51.194;17.150;2023-09-12T11:34:40;6.97;;;6.28;;
17631;SDS011;8934;51.194;17.150;2023-09-12T11:37:28;7.90;;;7.10;;
17631;SDS011;8934;51.194;17.150;2023-09-12T11:40:22;7.22;;;6.53;;
17631;SDS011;8934;51.194;17.150;2023-09-12T11:43:17;6.95;;;6.25;;
17631;SDS011;8934;51.194;17.150;2023-09-12T11:46:07;6.78;;;6.18;;
17631;SDS011;8934;51.194;17.150;2023-09-12T11:48:55;6.60;;;5.95;;
17631;SDS011;8934;51.194;17.150;2023-09-12T11:51:47;7.78;;;6.13;;
17631;SDS011;8934;51.194;17.150;2023-09-12T11:54:36;7.18;;;6.47;;
17631;SDS011;8934;51.194;17.150;2023-09-12T11:57:26;7.35;;;6.22;;
17631;SDS011;8934;51.194;17.150;2023-09-12T12:00:13;7.97;;;6.57;;
17631;SDS011;8934;51.194;17.150;2023-09-12T12:03:05;6.82;;;6.22;;
17631;SDS011;8934;51.194;17.150;2023-09-12T12:05:54;7.22;;;6.40;;
17631;SDS011;8934;51.194;17.150;2023-09-12T12:08:42;9.18;;;6.47;;
17631;SDS011;8934;51.194;17.150;2023-09-12T12:11:31;7.60;;;6.82;;
17631;SDS011;8934;51.194;17.150;2023-09-12T12:14:21;7.65;;;6.95;;
17631;SDS011;8934;51.194;17.150;2023-09-12T12:17:09;8.70;;;6.47;;
17631;SDS011;8934;51.194;17.150;2023-09-12T12:19:57;9.48;;;7.10;;
17631;SDS011;8934;51.194;17.150;2023-09-12T12:22:44;9.52;;;6.90;;
17631;SDS011;8934;51.194;17.150;2023-09-12T12:25:32;8.18;;;7.10;;
17631;SDS011;8934;51.194;17.150;2023-09-12T12:28:21;7.13;;;6.40;;
17631;SDS011;8934;51.194;17.150;2023-09-12T12:31:10;8.38;;;6.93;;
17631;SDS011;8934;51.194;17.150;2023-09-12T12:33:58;8.02;;;6.78;;
17631;SDS011;8934;51.194;17.150;2023-09-12T12:37:06;7.72;;;6.95;;
17631;SDS011;8934;51.194;17.150;2023-09-12T12:39:54;7.60;;;6.80;;
17631;SDS011;8934;51.194;17.150;2023-09-12T12:42:43;10.60;;;6.80;;
17631;SDS011;8934;51.194;17.150;2023-09-12T12:45:39;7.28;;;6.35;;
17631;SDS011;8934;51.194;17.150;2023-09-12T12:48:42;7.43;;;6.72;;
17631;SDS011;8934;51.194;17.150;2023-09-12T12:51:32;10.90;;;7.00;;
17631;SDS011;8934;51.194;17.150;2023-09-12T12:54:21;7.78;;;7.07;;
17631;SDS011;8934;51.194;17.150;2023-09-12T12:57:09;7.18;;;6.50;;
17631;SDS011;8934;51.194;17.150;2023-09-12T12:59:58;8.38;;;6.82;;
17631;SDS011;8934;51.194;17.150;2023-09-12T13:02:46;7.97;;;7.10;;
17631;SDS011;8934;51.194;17.150;2023-09-12T13:05:35;10.00;;;6.72;;
17631;SDS011;8934;51.194;17.150;2023-09-12T13:08:24;7.95;;;6.95;;
17631;SDS011;8934;51.194;17.150;2023-09-12T13:11:13;8.50;;;6.65;;
17631;SDS011;8934;51.194;17.150;2023-09-12T13:14:03;7.30;;;6.50;;
17631;SDS011;8934;51.194;17.150;2023-09-12T13:16:55;8.07;;;6.97;;
17631;SDS011;8934;51.194;17.150;2023-09-12T13:19:43;7.90;;;7.10;;
17631;SDS011;8934;51.194;17.150;2023-09-12T13:22:33;8.40;;;7.20;;
17631;SDS011;8934;51.194;17.150;2023-09-12T13:25:20;9.40;;;7.47;;
17631;SDS011;8934;51.194;17.150;2023-09-12T13:28:09;7.95;;;7.25;;
17631;SDS011;8934;51.194;17.150;2023-09-12T13:30:57;11.73;;;8.40;;
17631;SDS011;8934;51.194;17.150;2023-09-12T13:33:45;9.75;;;7.88;;
17631;SDS011;8934;51.194;17.150;2023-09-12T13:36:34;9.77;;;7.75;;
17631;SDS011;8934;51.194;17.150;2023-09-12T13:39:23;8.35;;;7.55;;
17631;SDS011;8934;51.194;17.150;2023-09-12T13:42:11;7.28;;;6.57;;
17631;SDS011;8934;51.194;17.150;2023-09-12T13:45:00;8.85;;;7.53;;
17631;SDS011;8934;51.194;17.150;2023-09-12T13:47:48;8.45;;;7.43;;
17631;SDS011;8934;51.194;17.150;2023-09-12T13:50:36;9.75;;;7.40;;
17631;SDS011;8934;51.194;17.150;2023-09-12T13:53:23;8.38;;;7.25;;
17631;SDS011;8934;51.194;17.150;2023-09-12T13:56:13;7.28;;;6.68;;
17631;SDS011;8934;51.194;17.150;2023-09-12T13:59:09;8.38;;;7.38;;
17631;SDS011;8934;51.194;17.150;2023-09-12T14:01:56;8.38;;;7.55;;
17631;SDS011;8934;51.194;17.150;2023-09-12T14:04:44;8.70;;;7.53;;
17631;SDS011;8934;51.194;17.150;2023-09-12T14:07:40;9.45;;;7.63;;
17631;SDS011;8934;51.194;17.150;2023-09-12T14:10:28;24.92;;;8.75;;
17631;SDS011;8934;51.194;17.150;2023-09-12T14:13:24;11.18;;;8.00;;
17631;SDS011;8934;51.194;17.150;2023-09-12T14:16:12;16.58;;;7.78;;
17631;SDS011;8934;51.194;17.150;2023-09-12T14:19:00;8.18;;;7.35;;
17631;SDS011;8934;51.194;17.150;2023-09-12T14:21:49;8.85;;;7.43;;
17631;SDS011;8934;51.194;17.150;2023-09-12T14:24:39;8.52;;;7.65;;
17631;SDS011;8934;51.194;17.150;2023-09-12T14:27:27;8.98;;;7.00;;
17631;SDS011;8934;51.194;17.150;2023-09-12T14:30:17;7.90;;;7.05;;
17631;SDS011;8934;51.194;17.150;2023-09-12T14:33:06;7.20;;;6.57;;
17631;SDS011;8934;51.194;17.150;2023-09-12T14:35:54;8.00;;;6.85;;
17631;SDS011;8934;51.194;17.150;2023-09-12T14:38:42;8.15;;;7.13;;
17631;SDS011;8934;51.194;17.150;2023-09-12T14:41:30;8.00;;;7.05;;
17631;SDS011;8934;51.194;17.150;2023-09-12T14:44:18;8.88;;;7.05;;
17631;SDS011;8934;51.194;17.150;2023-09-12T14:47:07;7.72;;;6.70;;
17631;SDS011;8934;51.194;17.150;2023-09-12T14:49:55;7.50;;;6.78;;
17631;SDS011;8934;51.194;17.150;2023-09-12T14:52:44;10.50;;;7.22;;
17631;SDS011;8934;51.194;17.150;2023-09-12T14:55:32;9.23;;;6.93;;
17631;SDS011;8934;51.194;17.150;2023-09-12T14:58:20;8.77;;;6.95;;
17631;SDS011;8934;51.194;17.150;2023-09-12T15:01:08;11.43;;;7.25;;
17631;SDS011;8934;51.194;17.150;2023-09-12T15:03:57;12.52;;;7.95;;
17631;SDS011;8934;51.194;17.150;2023-09-12T15:06:46;8.05;;;7.00;;
17631;SDS011;8934;51.194;17.150;2023-09-12T15:09:34;8.13;;;6.93;;
17631;SDS011;8934;51.194;17.150;2023-09-12T15:12:22;9.85;;;7.70;;
17631;SDS011;8934;51.194;17.150;2023-09-12T15:15:10;7.90;;;7.07;;
17631;SDS011;8934;51.194;17.150;2023-09-12T15:17:58;9.45;;;7.28;;
17631;SDS011;8934;51.194;17.150;2023-09-12T15:20:48;8.45;;;7.28;;
17631;SDS011;8934;51.194;17.150;2023-09-12T15:23:35;9.45;;;7.10;;
17631;SDS011;8934;51.194;17.150;2023-09-12T15:26:23;8.60;;;7.57;;
17631;SDS011;8934;51.194;17.150;2023-09-12T15:29:12;8.55;;;7.28;;
17631;SDS011;8934;51.194;17.150;2023-09-12T15:32:00;7.72;;;6.93;;
17631;SDS011;8934;51.194;17.150;2023-09-12T15:34:47;8.98;;;7.60;;
17631;SDS011;8934;51.194;17.150;2023-09-12T15:37:37;8.25;;;7.40;;
17631;SDS011;8934;51.194;17.150;2023-09-12T15:40:24;9.13;;;7.57;;
17631;SDS011;8934;51.194;17.150;2023-09-12T15:43:12;8.88;;;8.00;;
17631;SDS011;8934;51.194;17.150;2023-09-12T15:46:09;8.55;;;7.75;;
17631;SDS011;8934;51.194;17.150;2023-09-12T15:49:17;9.25;;;7.20;;
17631;SDS011;8934;51.194;17.150;2023-09-12T15:52:05;9.18;;;8.27;;
17631;SDS011;8934;51.194;17.150;2023-09-12T15:54:54;9.63;;;8.30;;
17631;SDS011;8934;51.194;17.150;2023-09-12T15:57:42;8.50;;;7.70;;
17631;SDS011;8934;51.194;17.150;2023-09-12T16:00:30;8.57;;;7.68;;
17631;SDS011;8934;51.194;17.150;2023-09-12T16:03:18;9.48;;;7.97;;
17631;SDS011;8934;51.194;17.150;2023-09-12T16:06:07;9.18;;;8.23;;
17631;SDS011;8934;51.194;17.150;2023-09-12T16:08:55;9.38;;;8.13;;
17631;SDS011;8934;51.194;17.150;2023-09-12T16:11:44;10.02;;;8.45;;
17631;SDS011;8934;51.194;17.150;2023-09-12T16:14:32;10.32;;;8.93;;
17631;SDS011;8934;51.194;17.150;2023-09-12T16:17:20;11.02;;;7.80;;
17631;SDS011;8934;51.194;17.150;2023-09-12T16:20:08;12.77;;;9.13;;
17631;SDS011;8934;51.194;17.150;2023-09-12T16:22:59;19.33;;;8.85;;
17631;SDS011;8934;51.194;17.150;2023-09-12T16:25:46;11.73;;;8.25;;
17631;SDS011;8934;51.194;17.150;2023-09-12T16:28:38;12.70;;;9.82;;
17631;SDS011;8934;51.194;17.150;2023-09-12T16:31:25;13.35;;;9.10;;
17631;SDS011;8934;51.194;17.150;2023-09-12T16:34:13;17.30;;;9.30;;
17631;SDS011;8934;51.194;17.150;2023-09-12T16:37:01;15.75;;;9.75;;
17631;SDS011;8934;51.194;17.150;2023-09-12T16:39:50;15.20;;;9.38;;
17631;SDS011;8934;51.194;17.150;2023-09-12T16:42:38;11.98;;;9.82;;
17631;SDS011;8934;51.194;17.150;2023-09-12T16:45:28;9.57;;;8.57;;
17631;SDS011;8934;51.194;17.150;2023-09-12T16:48:16;11.27;;;9.98;;